createdAt,value
2022-10-31T00:01:37.499Z,12.60
2022-10-31T00:05:19.339Z,12.60
2022-10-31T00:09:02.847Z,12.60
2022-10-31T00:12:44.702Z,12.60
2022-10-31T00:16:27.258Z,12.60
2022-10-31T00:20:09.768Z,12.60
2022-10-31T00:23:51.634Z,12.60
2022-10-31T00:27:33.671Z,12.60
2022-10-31T00:31:15.945Z,12.60
2022-10-31T00:34:58.099Z,12.60
2022-10-31T00:38:40.325Z,12.60
2022-10-31T00:42:22.160Z,12.50
2022-10-31T00:46:04.391Z,12.50
2022-10-31T00:49:46.688Z,12.50
2022-10-31T00:53:28.570Z,12.40
2022-10-31T00:57:10.418Z,12.40
2022-10-31T01:00:56.203Z,12.30
2022-10-31T01:04:38.451Z,12.30
2022-10-31T01:08:20.434Z,12.30
2022-10-31T01:12:02.287Z,12.20
2022-10-31T01:15:44.133Z,12.30
2022-10-31T01:19:26.031Z,12.20
2022-10-31T01:23:07.851Z,12.30
2022-10-31T01:26:49.781Z,12.30
2022-10-31T01:30:31.627Z,12.30
2022-10-31T01:34:18.227Z,12.20
2022-10-31T01:38:00.076Z,12.30
2022-10-31T01:41:47.674Z,12.30
2022-10-31T01:45:29.553Z,12.30
2022-10-31T01:49:47.820Z,12.30
2022-10-31T01:53:29.694Z,12.30
2022-10-31T01:57:15.562Z,12.30
2022-10-31T02:01:04.817Z,12.40
2022-10-31T02:04:49.881Z,12.40
2022-10-31T02:08:36.933Z,12.40
2022-10-31T02:12:19.689Z,12.50
2022-10-31T02:16:02.042Z,12.60
2022-10-31T02:20:08.402Z,12.60
2022-10-31T02:24:30.181Z,12.80
2022-10-31T02:28:49.742Z,12.80
2022-10-31T02:32:34.577Z,12.70
2022-10-31T02:36:16.369Z,12.80
2022-10-31T02:40:16.951Z,12.80
2022-10-31T02:44:19.733Z,12.70
2022-10-31T02:48:09.246Z,12.70
2022-10-31T02:51:51.828Z,12.80
2022-10-31T02:55:36.894Z,12.80
2022-10-31T02:59:19.451Z,12.70
2022-10-31T03:03:20.598Z,12.70
2022-10-31T03:07:08.843Z,12.70
2022-10-31T03:10:50.695Z,12.70
2022-10-31T03:14:41.063Z,12.70
2022-10-31T03:18:41.397Z,12.60
2022-10-31T03:22:30.694Z,12.60
2022-10-31T03:26:15.136Z,12.70
2022-10-31T03:30:01.678Z,12.70
2022-10-31T03:33:45.596Z,12.80
2022-10-31T03:37:30.967Z,12.80
2022-10-31T03:41:20.567Z,12.90
2022-10-31T03:45:16.589Z,12.90
2022-10-31T03:48:59.105Z,13.00
2022-10-31T03:52:49.144Z,13.10
2022-10-31T03:56:35.917Z,13.10
2022-10-31T04:00:18.841Z,13.10
2022-10-31T04:04:02.354Z,13.10
2022-10-31T04:07:47.911Z,13.10
2022-10-31T04:11:36.785Z,13.10
2022-10-31T04:15:20.524Z,13.20
2022-10-31T04:19:02.376Z,13.20
2022-10-31T04:22:44.559Z,13.30
2022-10-31T04:26:27.009Z,13.30
2022-10-31T04:30:09.421Z,13.40
2022-10-31T04:33:51.344Z,13.40
2022-10-31T04:37:33.177Z,13.40
2022-10-31T04:41:15.026Z,13.40
2022-10-31T04:44:57.336Z,13.40
2022-10-31T04:48:39.183Z,13.50
2022-10-31T04:52:21.009Z,13.50
2022-10-31T04:56:02.868Z,13.50
2022-10-31T04:59:45.282Z,13.50
2022-10-31T05:03:27.133Z,13.50
2022-10-31T05:07:09.034Z,13.50
2022-10-31T05:10:50.871Z,13.40
2022-10-31T05:14:32.817Z,13.40
2022-10-31T05:18:14.642Z,13.30
2022-10-31T05:21:56.494Z,13.30
2022-10-31T05:25:38.515Z,13.20
2022-10-31T05:29:20.378Z,13.20
2022-10-31T05:33:02.515Z,13.20
2022-10-31T05:36:44.810Z,13.30
2022-10-31T05:40:28.184Z,13.20
2022-10-31T05:44:10.099Z,13.30
2022-10-31T05:48:01.346Z,13.20
2022-10-31T05:51:43.528Z,13.20
2022-10-31T05:55:26.663Z,13.20
2022-10-31T05:59:08.567Z,13.30
2022-10-31T06:02:50.471Z,13.20
2022-10-31T06:06:32.306Z,13.10
2022-10-31T06:10:14.414Z,13.20
2022-10-31T06:13:56.290Z,13.10
2022-10-31T06:17:38.365Z,13.10
2022-10-31T06:21:20.295Z,13.00
2022-10-31T06:25:02.243Z,13.00
2022-10-31T06:28:44.099Z,13.00
2022-10-31T06:32:26.057Z,12.90
2022-10-31T06:36:08.426Z,12.90
2022-10-31T06:39:50.246Z,12.80
2022-10-31T06:43:32.828Z,12.70
2022-10-31T06:47:14.839Z,12.70
2022-10-31T06:51:01.298Z,12.70
2022-10-31T06:54:43.239Z,12.60
2022-10-31T06:58:25.378Z,12.60
2022-10-31T07:02:10.687Z,12.60
2022-10-31T07:05:52.743Z,12.50
2022-10-31T07:09:34.583Z,12.50
2022-10-31T07:13:16.839Z,12.40
2022-10-31T07:16:58.651Z,12.40
2022-10-31T07:20:40.528Z,12.40
2022-10-31T07:24:22.480Z,12.40
2022-10-31T07:28:04.703Z,12.40
2022-10-31T07:31:47.605Z,12.40
2022-10-31T07:35:30.681Z,12.50
2022-10-31T07:39:12.678Z,12.50
2022-10-31T07:42:55.283Z,12.50
2022-10-31T07:46:37.173Z,12.50
2022-10-31T07:50:24.530Z,12.60
2022-10-31T07:54:06.654Z,12.60
2022-10-31T07:57:57.586Z,12.70
2022-10-31T08:01:39.539Z,12.80
2022-10-31T08:05:21.467Z,12.90
2022-10-31T08:09:03.380Z,13.10
2022-10-31T08:12:45.231Z,13.40
2022-10-31T08:16:27.983Z,13.80
2022-10-31T08:20:10.560Z,14.00
2022-10-31T08:23:52.511Z,14.30
2022-10-31T08:27:34.419Z,14.60
2022-10-31T08:31:16.242Z,15.00
2022-10-31T08:34:58.254Z,15.60
2022-10-31T08:38:40.088Z,16.00
2022-10-31T08:42:22.007Z,16.10
2022-10-31T08:46:04.257Z,16.30
2022-10-31T08:49:46.097Z,16.60
2022-10-31T08:53:28.218Z,16.90
2022-10-31T08:57:10.127Z,17.20
2022-10-31T09:00:54.384Z,17.40
2022-10-31T09:04:36.392Z,17.60
2022-10-31T09:08:18.523Z,17.80
2022-10-31T09:12:00.612Z,18.30
2022-10-31T09:15:44.852Z,19.10
2022-10-31T09:19:26.816Z,19.70
2022-10-31T09:23:13.314Z,20.00
2022-10-31T09:26:55.994Z,20.00
2022-10-31T09:30:48.633Z,19.70
2022-10-31T09:34:30.838Z,19.20
2022-10-31T09:38:16.153Z,18.70
2022-10-31T09:42:13.210Z,18.30
2022-10-31T09:46:27.461Z,17.90
2022-10-31T09:50:22.669Z,17.60
2022-10-31T09:54:20.679Z,17.40
2022-10-31T09:58:04.189Z,17.20
2022-10-31T10:01:52.424Z,17.10
2022-10-31T10:05:37.131Z,17.10
2022-10-31T10:09:23.260Z,17.00
2022-10-31T10:13:29.372Z,17.10
2022-10-31T10:17:26.256Z,17.20
2022-10-31T10:21:23.585Z,17.30
2022-10-31T10:25:24.310Z,17.50
2022-10-31T10:29:34.685Z,17.60
2022-10-31T10:33:23.510Z,17.70
2022-10-31T10:37:11.314Z,17.90
2022-10-31T10:40:54.892Z,17.90
2022-10-31T10:45:01.352Z,18.00
2022-10-31T10:48:45.181Z,18.00
2022-10-31T10:52:55.193Z,17.90
2022-10-31T10:57:05.397Z,17.80
2022-10-31T11:00:49.154Z,17.60
2022-10-31T11:04:36.906Z,17.60
2022-10-31T11:08:41.698Z,17.50
2022-10-31T11:12:34.717Z,17.60
2022-10-31T11:16:38.065Z,17.60
2022-10-31T11:20:33.129Z,17.70
2022-10-31T11:24:48.275Z,17.80
2022-10-31T11:28:33.338Z,17.80
2022-10-31T11:32:25.724Z,17.80
2022-10-31T11:36:26.745Z,17.70
2022-10-31T11:40:15.931Z,17.60
2022-10-31T11:44:05.494Z,17.70
2022-10-31T11:48:08.257Z,17.70
2022-10-31T11:51:54.168Z,17.80
2022-10-31T11:55:39.177Z,17.90
2022-10-31T11:59:29.373Z,18.00
2022-10-31T12:03:23.812Z,18.00
2022-10-31T12:07:16.485Z,18.10
2022-10-31T12:11:24.455Z,18.20
2022-10-31T12:15:09.640Z,18.30
2022-10-31T12:19:05.595Z,18.30
2022-10-31T12:23:15.983Z,18.40
2022-10-31T12:27:32.262Z,18.40
2022-10-31T12:31:42.008Z,18.40
2022-10-31T12:35:44.018Z,18.30
2022-10-31T12:39:56.196Z,18.20
2022-10-31T12:43:44.691Z,18.00
2022-10-31T12:47:48.765Z,17.80
2022-10-31T12:51:58.253Z,17.70
2022-10-31T12:56:02.678Z,17.60
2022-10-31T12:59:54.416Z,17.50
2022-10-31T13:03:45.428Z,17.50
2022-10-31T13:07:40.439Z,17.40
2022-10-31T13:11:35.185Z,17.40
2022-10-31T13:15:21.756Z,17.30
2022-10-31T13:19:22.447Z,17.30
2022-10-31T13:23:48.597Z,17.20
2022-10-31T13:27:30.846Z,17.30
2022-10-31T13:31:13.860Z,17.50
2022-10-31T13:35:33.100Z,17.50
2022-10-31T13:39:38.993Z,17.40
2022-10-31T13:43:40.068Z,17.40
2022-10-31T13:47:51.649Z,17.30
2022-10-31T13:51:36.201Z,17.40
2022-10-31T13:56:11.278Z,17.50
2022-10-31T14:00:00.812Z,17.50
2022-10-31T14:07:55.544Z,17.50
2022-10-31T14:11:37.879Z,17.50
2022-10-31T14:19:21.897Z,17.00
2022-10-31T14:23:35.159Z,16.80
2022-10-31T14:27:29.830Z,16.70
2022-10-31T14:31:39.155Z,16.70
2022-10-31T14:35:24.953Z,16.50
2022-10-31T14:39:39.817Z,16.40
2022-10-31T14:43:52.015Z,16.20
2022-10-31T14:47:53.076Z,16.00
2022-10-31T14:51:45.633Z,15.60
2022-10-31T14:55:28.349Z,15.20
2022-10-31T14:59:15.624Z,15.00
2022-10-31T15:03:20.832Z,14.80
2022-10-31T15:11:39.233Z,14.50
2022-10-31T15:15:55.972Z,14.40
2022-10-31T15:19:54.412Z,14.30
2022-10-31T15:23:48.835Z,14.10
2022-10-31T15:31:57.042Z,14.10
2022-10-31T15:35:40.397Z,14.00
2022-10-31T15:40:10.703Z,14.00
2022-10-31T15:44:42.440Z,14.00
2022-10-31T15:48:36.138Z,14.00
2022-10-31T15:52:35.886Z,13.90
2022-10-31T15:56:30.404Z,13.90
2022-10-31T16:10:00.739Z,13.80
2022-10-31T16:14:29.355Z,13.80
2022-10-31T16:18:28.596Z,13.70
2022-10-31T16:27:33.643Z,13.70
2022-10-31T16:31:31.037Z,13.70
2022-10-31T16:39:33.594Z,13.70
2022-10-31T16:43:20.568Z,13.70
2022-10-31T16:47:15.557Z,13.70
2022-10-31T16:50:57.403Z,13.70
2022-10-31T16:54:40.120Z,13.70
2022-10-31T16:58:28.685Z,13.70
2022-10-31T17:02:17.965Z,13.70
2022-10-31T17:06:00.147Z,13.70
2022-10-31T17:09:42.172Z,13.70
2022-10-31T17:13:27.824Z,13.70
2022-10-31T17:17:09.821Z,13.70
2022-10-31T17:20:55.914Z,13.70
2022-10-31T17:24:37.901Z,13.70
2022-10-31T17:28:19.846Z,13.60
2022-10-31T17:32:03.223Z,13.60
2022-10-31T17:35:45.619Z,13.70
2022-10-31T17:44:12.804Z,13.70
2022-10-31T17:47:54.882Z,13.70
2022-10-31T17:51:38.341Z,13.70
2022-10-31T17:55:20.957Z,13.70
2022-10-31T17:59:03.533Z,13.70
2022-10-31T18:02:46.100Z,13.70
2022-10-31T18:06:28.573Z,13.70
2022-10-31T18:10:10.793Z,13.70
2022-10-31T18:13:57.499Z,13.80
2022-10-31T18:17:42.113Z,13.80
2022-10-31T18:21:24.378Z,13.80
2022-10-31T18:25:06.802Z,13.80
2022-10-31T18:28:49.228Z,13.90
2022-10-31T18:32:31.177Z,13.90
2022-10-31T18:36:13.617Z,13.90
2022-10-31T18:39:55.530Z,13.90
2022-10-31T18:43:37.808Z,14.00
2022-10-31T18:47:20.352Z,14.00
2022-10-31T18:51:06.282Z,14.00
2022-10-31T18:54:48.266Z,14.10
2022-10-31T18:58:30.119Z,14.10
2022-10-31T19:02:15.195Z,14.20
2022-10-31T19:05:57.142Z,14.20
2022-10-31T19:09:39.069Z,14.30
2022-10-31T19:13:21.328Z,14.30
2022-10-31T19:17:03.394Z,14.30
2022-10-31T19:20:45.315Z,14.40
2022-10-31T19:24:27.301Z,14.40
2022-10-31T19:28:09.203Z,14.40
2022-10-31T19:31:51.140Z,14.40
2022-10-31T19:35:33.129Z,14.40
2022-10-31T19:39:15.111Z,14.40
2022-10-31T19:42:58.870Z,14.40
2022-10-31T19:46:59.982Z,14.40
2022-10-31T19:50:41.908Z,14.30
2022-10-31T19:54:23.823Z,14.30
2022-10-31T19:58:05.658Z,14.30
2022-10-31T20:01:47.694Z,14.20
2022-10-31T20:05:29.613Z,14.30
2022-10-31T20:09:15.738Z,14.20
2022-10-31T20:12:57.606Z,14.20
2022-10-31T20:16:39.906Z,14.20
2022-10-31T20:20:22.271Z,14.20
2022-10-31T20:24:06.952Z,14.20
2022-10-31T20:27:48.846Z,14.20
2022-10-31T20:31:33.897Z,14.20
2022-10-31T20:35:15.869Z,14.20
2022-10-31T20:38:58.696Z,14.20
2022-10-31T20:42:40.618Z,14.10
2022-10-31T20:46:25.573Z,14.20
2022-10-31T20:50:07.847Z,14.10
2022-10-31T20:53:51.514Z,14.20
2022-10-31T20:57:33.781Z,14.10
2022-10-31T21:01:22.154Z,14.10
2022-10-31T21:05:08.454Z,14.00
2022-10-31T21:08:51.326Z,14.10
2022-10-31T21:12:33.246Z,14.00
2022-10-31T21:16:20.654Z,13.90
2022-10-31T21:20:04.651Z,13.70
2022-10-31T21:23:47.169Z,13.70
2022-10-31T21:27:29.185Z,13.50
2022-10-31T21:31:14.717Z,13.50
2022-10-31T21:34:56.642Z,13.40
2022-10-31T21:38:39.064Z,13.30
2022-10-31T21:42:24.098Z,13.30
2022-10-31T21:46:09.033Z,13.20
2022-10-31T21:49:50.903Z,13.20
2022-10-31T21:53:51.435Z,13.10
2022-10-31T21:57:33.494Z,13.00
2022-10-31T22:01:15.483Z,13.00
2022-10-31T22:04:57.384Z,12.90
2022-10-31T22:08:40.751Z,12.80
2022-10-31T22:12:22.683Z,12.80
2022-10-31T22:16:18.773Z,12.80
2022-10-31T22:20:00.633Z,12.80
2022-10-31T22:23:43.499Z,12.80
2022-10-31T22:27:25.801Z,12.70
2022-10-31T22:31:13.125Z,12.60
2022-10-31T22:34:55.003Z,12.60
2022-10-31T22:38:40.118Z,12.50
2022-10-31T22:42:22.403Z,12.40
2022-10-31T22:46:06.570Z,12.30
2022-10-31T22:49:49.264Z,12.10
2022-10-31T22:53:31.148Z,12.00
2022-10-31T22:57:12.994Z,12.00
2022-10-31T23:00:54.986Z,11.90
2022-10-31T23:04:37.672Z,11.80
2022-10-31T23:08:19.535Z,11.80
2022-10-31T23:12:21.488Z,11.70
2022-10-31T23:16:06.901Z,11.70
2022-10-31T23:19:48.825Z,11.70
2022-10-31T23:23:34.891Z,11.70
2022-10-31T23:27:21.193Z,11.70
2022-10-31T23:31:03.083Z,11.70
2022-10-31T23:34:46.239Z,11.70
2022-10-31T23:38:28.231Z,11.70
2022-10-31T23:42:10.277Z,11.70
2022-10-31T23:45:52.127Z,11.70
2022-10-31T23:49:34.269Z,11.70
2022-10-31T23:53:16.159Z,11.70
2022-10-31T23:56:58.328Z,11.80
